createdAt,value
2023-02-03T00:01:38.782Z,5.39
2023-02-03T00:04:09.135Z,5.41
2023-02-03T00:06:40.174Z,5.42
2023-02-03T00:09:10.750Z,5.42
2023-02-03T00:11:41.170Z,5.41
2023-02-03T00:14:11.612Z,5.43
2023-02-03T00:16:42.004Z,5.44
2023-02-03T00:19:12.377Z,5.45
2023-02-03T00:21:42.801Z,5.45
2023-02-03T00:24:13.553Z,5.40
2023-02-03T00:26:46.932Z,5.41
2023-02-03T00:29:18.687Z,5.47
2023-02-03T00:31:49.614Z,5.47
2023-02-03T00:34:20.258Z,5.44
2023-02-03T00:36:50.705Z,5.40
2023-02-03T00:39:21.167Z,5.37
2023-02-03T00:41:51.578Z,5.34
2023-02-03T00:44:21.957Z,5.33
2023-02-03T00:46:52.439Z,5.36
2023-02-03T00:49:22.904Z,5.34
2023-02-03T00:51:53.402Z,5.28
2023-02-03T00:54:24.464Z,5.25
2023-02-03T00:56:54.785Z,5.20
2023-02-03T00:59:25.118Z,5.20
2023-02-03T01:01:55.449Z,5.21
2023-02-03T01:04:27.504Z,5.20
2023-02-03T01:06:59.800Z,5.18
2023-02-03T01:09:30.215Z,5.15
2023-02-03T01:12:00.681Z,5.15
2023-02-03T01:14:31.450Z,5.16
2023-02-03T01:17:03.161Z,5.13
2023-02-03T01:19:34.100Z,5.19
2023-02-03T01:22:04.895Z,5.19
2023-02-03T01:24:35.412Z,5.18
2023-02-03T01:27:06.579Z,5.18
2023-02-03T01:29:36.988Z,5.21
2023-02-03T01:32:07.697Z,5.24
2023-02-03T01:34:39.288Z,5.26
2023-02-03T01:37:11.665Z,5.28
2023-02-03T01:39:42.027Z,5.29
2023-02-03T01:42:15.404Z,5.32
2023-02-03T01:44:49.432Z,5.32
2023-02-03T01:47:24.780Z,5.36
2023-02-03T01:50:01.366Z,5.35
2023-02-03T01:52:32.211Z,5.35
2023-02-03T01:55:06.039Z,5.36
2023-02-03T01:57:39.330Z,5.37
2023-02-03T02:00:13.903Z,5.36
2023-02-03T02:02:45.383Z,5.35
2023-02-03T02:05:19.049Z,5.33
2023-02-03T02:07:50.539Z,5.34
2023-02-03T02:10:21.154Z,5.35
2023-02-03T02:12:52.004Z,5.33
2023-02-03T02:15:25.482Z,5.30
2023-02-03T02:18:07.585Z,5.26
2023-02-03T02:21:00.040Z,5.26
2023-02-03T02:24:00.982Z,5.22
2023-02-03T02:26:43.252Z,5.25
2023-02-03T02:29:29.678Z,5.23
2023-02-03T02:32:04.373Z,5.20
2023-02-03T02:34:43.561Z,5.15
2023-02-03T02:37:20.227Z,5.19
2023-02-03T02:39:57.582Z,5.19
2023-02-03T02:42:32.532Z,5.20
2023-02-03T02:45:09.238Z,5.19
2023-02-03T02:47:40.365Z,5.17
2023-02-03T02:50:15.131Z,5.17
2023-02-03T02:52:47.692Z,5.18
2023-02-03T02:55:20.367Z,5.16
2023-02-03T02:57:51.621Z,5.20
2023-02-03T03:00:23.375Z,5.18
2023-02-03T03:02:53.768Z,5.17
2023-02-03T03:05:26.663Z,5.17
2023-02-03T03:08:02.224Z,5.17
2023-02-03T03:10:34.388Z,5.15
2023-02-03T03:13:05.074Z,5.09
2023-02-03T03:15:36.515Z,5.05
2023-02-03T03:18:09.116Z,5.03
2023-02-03T03:20:42.870Z,5.03
2023-02-03T03:23:16.643Z,5.01
2023-02-03T03:25:50.643Z,4.97
2023-02-03T03:28:26.722Z,4.95
2023-02-03T03:30:57.597Z,4.96
2023-02-03T03:33:28.047Z,4.97
2023-02-03T03:36:03.237Z,4.96
2023-02-03T03:38:39.164Z,4.95
2023-02-03T03:41:13.182Z,4.94
2023-02-03T03:43:45.977Z,4.95
2023-02-03T03:46:17.862Z,4.96
2023-02-03T03:48:53.918Z,4.96
2023-02-03T03:51:27.004Z,4.97
2023-02-03T03:53:59.169Z,4.96
2023-02-03T03:56:31.985Z,4.97
2023-02-03T03:59:05.229Z,4.99
2023-02-03T04:01:36.278Z,5.00
2023-02-03T04:04:10.647Z,4.99
2023-02-03T04:06:41.710Z,4.98
2023-02-03T04:09:12.085Z,4.99
2023-02-03T04:12:00.061Z,5.02
2023-02-03T04:14:31.243Z,5.03
2023-02-03T04:17:02.095Z,5.02
2023-02-03T04:19:33.298Z,5.02
2023-02-03T04:22:03.937Z,5.04
2023-02-03T04:24:34.421Z,5.07
2023-02-03T04:27:05.534Z,5.04
2023-02-03T04:29:36.201Z,5.06
2023-02-03T04:32:06.924Z,5.01
2023-02-03T04:34:37.361Z,5.03
2023-02-03T04:37:07.896Z,5.03
2023-02-03T04:39:38.351Z,5.00
2023-02-03T04:42:08.733Z,4.98
2023-02-03T04:44:39.125Z,4.96
2023-02-03T04:47:09.528Z,4.95
2023-02-03T04:49:39.862Z,4.95
2023-02-03T04:52:10.407Z,4.94
2023-02-03T04:54:41.038Z,4.89
2023-02-03T04:57:11.384Z,4.85
2023-02-03T04:59:41.731Z,4.83
2023-02-03T05:02:12.060Z,4.81
2023-02-03T05:04:42.424Z,4.78
2023-02-03T05:07:13.067Z,4.74
2023-02-03T05:09:43.376Z,4.70
2023-02-03T05:12:13.698Z,4.68
2023-02-03T05:14:44.055Z,4.68
2023-02-03T05:17:14.680Z,4.67
2023-02-03T05:19:45.044Z,4.65
2023-02-03T05:22:15.489Z,4.64
2023-02-03T05:24:46.278Z,4.64
2023-02-03T05:27:16.758Z,4.65
2023-02-03T05:29:47.022Z,4.67
2023-02-03T05:32:17.746Z,4.68
2023-02-03T05:34:48.072Z,4.65
2023-02-03T05:37:18.719Z,4.64
2023-02-03T05:39:49.039Z,4.65
2023-02-03T05:42:19.346Z,4.67
2023-02-03T05:44:49.668Z,4.66
2023-02-03T05:47:20.020Z,4.65
2023-02-03T05:49:50.349Z,4.65
2023-02-03T05:52:21.137Z,4.66
2023-02-03T05:54:51.452Z,4.67
2023-02-03T05:57:21.839Z,4.68
2023-02-03T05:59:52.144Z,4.67
2023-02-03T06:02:22.461Z,4.65
2023-02-03T06:04:52.774Z,4.66
2023-02-03T06:07:23.118Z,4.68
2023-02-03T06:09:53.437Z,4.70
2023-02-03T06:12:23.953Z,4.70
2023-02-03T06:14:54.234Z,4.66
2023-02-03T06:17:24.587Z,4.66
2023-02-03T06:19:54.911Z,4.67
2023-02-03T06:22:25.334Z,4.69
2023-02-03T06:24:55.629Z,4.72
2023-02-03T06:27:26.447Z,4.72
2023-02-03T06:29:56.979Z,4.72
2023-02-03T06:32:29.879Z,4.73
2023-02-03T06:35:02.858Z,4.73
2023-02-03T06:37:36.117Z,4.75
2023-02-03T06:40:06.759Z,4.75
2023-02-03T06:42:38.465Z,4.73
2023-02-03T06:45:12.233Z,4.73
2023-02-03T06:47:44.920Z,4.75
2023-02-03T06:50:15.236Z,4.77
2023-02-03T06:52:46.975Z,4.77
2023-02-03T06:55:19.208Z,4.76
2023-02-03T06:57:52.124Z,4.75
2023-02-03T07:00:24.755Z,4.77
2023-02-03T07:02:59.960Z,4.78
2023-02-03T07:05:32.257Z,4.81
2023-02-03T07:08:04.243Z,4.84
2023-02-03T07:10:36.062Z,4.85
2023-02-03T07:13:08.973Z,4.86
2023-02-03T07:15:40.273Z,4.90
2023-02-03T07:18:15.006Z,4.91
2023-02-03T07:20:49.320Z,4.91
2023-02-03T07:23:21.193Z,4.92
2023-02-03T07:25:53.293Z,4.96
2023-02-03T07:28:24.001Z,4.99
2023-02-03T07:30:58.340Z,5.00
2023-02-03T07:39:07.922Z,5.06
2023-02-03T07:41:38.229Z,5.06
2023-02-03T07:44:09.570Z,5.07
2023-02-03T07:46:44.712Z,5.08
2023-02-03T07:49:15.605Z,5.08
2023-02-03T07:51:45.854Z,5.12
2023-02-03T07:54:16.381Z,5.16
2023-02-03T07:56:46.742Z,5.18
2023-02-03T07:59:17.050Z,5.19
2023-02-03T08:01:47.372Z,5.21
2023-02-03T08:04:17.620Z,5.24
2023-02-03T08:06:47.952Z,5.27
2023-02-03T08:09:18.334Z,5.28
2023-02-03T08:11:49.107Z,5.28
2023-02-03T08:14:19.432Z,5.28
2023-02-03T08:16:49.757Z,5.32
2023-02-03T08:19:20.100Z,5.35
2023-02-03T08:21:50.440Z,5.38
2023-02-03T08:24:21.056Z,5.41
2023-02-03T08:26:52.928Z,5.44
2023-02-03T08:29:23.358Z,5.50
2023-02-03T08:31:55.066Z,5.57
2023-02-03T08:34:25.557Z,5.61
2023-02-03T08:36:55.867Z,5.66
2023-02-03T08:39:26.808Z,5.69
2023-02-03T08:41:57.107Z,5.77
2023-02-03T08:44:27.533Z,5.83
2023-02-03T08:46:57.882Z,5.86
2023-02-03T08:49:29.788Z,5.88
2023-02-03T08:52:00.699Z,5.90
2023-02-03T08:54:31.394Z,5.96
2023-02-03T08:57:02.341Z,6.01
2023-02-03T08:59:36.037Z,6.06
2023-02-03T09:02:07.735Z,6.11
2023-02-03T09:04:38.277Z,6.16
2023-02-03T09:07:08.724Z,6.22
2023-02-03T09:09:39.374Z,6.28
2023-02-03T09:12:12.224Z,6.34
2023-02-03T09:14:42.586Z,6.37
2023-02-03T09:17:12.952Z,6.39
2023-02-03T09:19:43.276Z,6.40
2023-02-03T09:22:13.655Z,6.42
2023-02-03T09:24:44.181Z,6.48
2023-02-03T09:27:14.578Z,6.53
2023-02-03T09:29:45.035Z,6.57
2023-02-03T09:32:15.868Z,6.61
2023-02-03T09:34:46.323Z,6.65
2023-02-03T09:37:16.747Z,6.74
2023-02-03T09:39:48.754Z,6.84
2023-02-03T09:42:34.827Z,6.88
2023-02-03T09:45:13.739Z,6.92
2023-02-03T09:47:45.523Z,6.95
2023-02-03T09:50:19.937Z,7.00
2023-02-03T09:52:50.475Z,7.04
2023-02-03T09:55:29.414Z,7.08
2023-02-03T09:58:05.324Z,7.13
2023-02-03T10:00:39.537Z,7.18
2023-02-03T10:03:18.999Z,7.27
2023-02-03T10:06:05.436Z,7.33
2023-02-03T10:08:56.430Z,7.38
2023-02-03T10:11:33.795Z,7.40
2023-02-03T10:14:12.812Z,7.43
2023-02-03T10:16:55.343Z,7.50
2023-02-03T10:19:31.425Z,7.55
2023-02-03T10:22:03.176Z,7.56
2023-02-03T10:24:39.572Z,7.57
2023-02-03T10:27:13.887Z,7.57
2023-02-03T10:29:45.117Z,7.56
2023-02-03T10:32:16.510Z,7.58
2023-02-03T10:34:49.938Z,7.59
2023-02-03T10:37:30.258Z,7.57
2023-02-03T10:40:02.711Z,7.56
2023-02-03T10:42:47.853Z,7.56
2023-02-03T10:45:19.032Z,7.55
2023-02-03T10:47:51.729Z,7.55
2023-02-03T10:50:32.100Z,7.58
2023-02-03T10:53:24.137Z,7.59
2023-02-03T10:56:03.927Z,7.60
2023-02-03T10:58:35.661Z,7.61
2023-02-03T11:01:12.523Z,7.60
2023-02-03T11:03:44.801Z,7.60
2023-02-03T11:06:18.829Z,7.59
2023-02-03T11:08:50.966Z,7.60
2023-02-03T11:11:25.713Z,7.61
2023-02-03T11:13:57.455Z,7.62
2023-02-03T11:16:27.792Z,7.63
2023-02-03T11:19:00.143Z,7.64
2023-02-03T11:21:32.936Z,7.60
2023-02-03T11:24:06.288Z,7.59
2023-02-03T11:26:44.056Z,7.55
2023-02-03T11:29:23.783Z,7.52
2023-02-03T11:31:56.168Z,7.50
2023-02-03T11:34:30.097Z,7.50
2023-02-03T11:37:00.502Z,7.52
2023-02-03T11:39:35.543Z,7.53
2023-02-03T11:42:24.327Z,7.41
2023-02-03T11:44:55.850Z,7.47
2023-02-03T11:47:26.396Z,7.47
2023-02-03T11:50:08.182Z,7.45
2023-02-03T11:52:48.998Z,7.48
2023-02-03T11:55:33.032Z,7.49
2023-02-03T11:58:13.073Z,7.43
2023-02-03T12:00:49.874Z,7.43
2023-02-03T12:03:30.832Z,7.45
2023-02-03T12:06:21.506Z,7.48
2023-02-03T12:09:02.862Z,7.46
2023-02-03T12:11:41.594Z,7.44
2023-02-03T12:14:20.738Z,7.43
2023-02-03T12:17:06.677Z,7.42
2023-02-03T12:19:45.864Z,7.42
2023-02-03T12:22:23.147Z,7.41
2023-02-03T12:25:02.595Z,7.39
2023-02-03T12:27:45.620Z,7.33
2023-02-03T12:30:19.214Z,7.27
2023-02-03T12:32:53.029Z,7.23
2023-02-03T12:35:27.346Z,7.16
2023-02-03T12:37:59.967Z,7.04
2023-02-03T12:40:37.119Z,7.01
2023-02-03T12:43:20.499Z,6.96
2023-02-03T12:45:55.762Z,6.95
2023-02-03T12:48:30.571Z,6.93
2023-02-03T12:51:03.646Z,6.92
2023-02-03T12:53:37.104Z,6.90
2023-02-03T12:56:10.956Z,6.89
2023-02-03T12:58:43.107Z,6.90
2023-02-03T13:01:18.022Z,6.89
2023-02-03T13:03:51.848Z,6.86
2023-02-03T13:06:26.025Z,6.83
2023-02-03T13:09:02.299Z,6.83
2023-02-03T13:11:35.299Z,6.86
2023-02-03T13:14:05.179Z,6.85
2023-02-03T13:16:40.122Z,6.82
2023-02-03T13:19:14.890Z,6.78
2023-02-03T13:21:46.686Z,6.79
2023-02-03T13:24:17.075Z,6.81
2023-02-03T13:27:03.397Z,6.81
2023-02-03T13:29:48.053Z,6.80
2023-02-03T13:32:29.774Z,6.80
2023-02-03T13:35:32.187Z,6.80
2023-02-03T13:38:06.192Z,6.74
2023-02-03T13:40:47.632Z,6.72
2023-02-03T13:43:37.243Z,6.74
2023-02-03T13:46:14.181Z,6.72
2023-02-03T13:48:46.770Z,6.69
2023-02-03T13:51:19.503Z,6.65
2023-02-03T13:53:51.529Z,6.61
2023-02-03T13:56:24.245Z,6.60
2023-02-03T13:59:06.092Z,6.59
2023-02-03T14:01:39.915Z,6.58
2023-02-03T14:04:31.708Z,6.57
2023-02-03T14:07:27.221Z,6.54
2023-02-03T14:10:21.202Z,6.59
2023-02-03T14:13:19.826Z,6.56
2023-02-03T14:16:22.802Z,6.53
2023-02-03T14:18:54.285Z,6.51
2023-02-03T14:21:25.981Z,6.50
2023-02-03T14:24:00.821Z,6.49
2023-02-03T14:26:39.166Z,6.48
2023-02-03T14:29:10.492Z,6.44
2023-02-03T14:31:59.558Z,6.44
2023-02-03T14:34:40.602Z,6.45
2023-02-03T14:37:18.702Z,6.48
2023-02-03T14:40:17.298Z,6.49
2023-02-03T14:43:30.658Z,6.49
2023-02-03T14:46:18.730Z,6.53
2023-02-03T14:49:03.602Z,6.55
2023-02-03T14:51:55.931Z,6.56
2023-02-03T14:54:42.291Z,6.58
2023-02-03T14:57:20.375Z,6.62
2023-02-03T14:59:57.061Z,6.66
2023-02-03T15:02:28.605Z,6.71
2023-02-03T15:05:29.774Z,6.74
2023-02-03T15:08:03.591Z,6.76
2023-02-03T15:10:44.038Z,6.79
2023-02-03T15:13:27.792Z,6.83
2023-02-03T15:16:00.259Z,6.83
2023-02-03T15:18:35.951Z,6.83
2023-02-03T15:21:07.015Z,6.84
2023-02-03T15:23:43.142Z,6.85
2023-02-03T15:26:16.234Z,6.87
2023-02-03T15:28:45.194Z,6.87
2023-02-03T15:31:15.814Z,6.86
2023-02-03T15:33:45.215Z,6.84
2023-02-03T15:36:15.739Z,6.83
2023-02-03T15:38:45.964Z,6.84
2023-02-03T15:41:17.451Z,6.86
2023-02-03T15:43:46.482Z,6.85
2023-02-03T15:46:18.738Z,6.84
2023-02-03T15:48:48.058Z,6.81
2023-02-03T15:51:17.653Z,6.78
2023-02-03T15:53:48.381Z,6.79
2023-02-03T15:56:21.448Z,6.79
2023-02-03T15:58:50.741Z,6.79
2023-02-03T16:01:20.708Z,6.76
2023-02-03T16:03:52.587Z,6.72
2023-02-03T16:06:27.432Z,6.67
2023-02-03T16:08:56.294Z,6.60
2023-02-03T16:11:26.352Z,6.63
2023-02-03T16:13:56.815Z,6.59
2023-02-03T16:16:26.489Z,6.57
2023-02-03T16:18:56.132Z,6.54
2023-02-03T16:21:29.356Z,6.52
2023-02-03T16:23:58.318Z,6.50
2023-02-03T16:26:28.220Z,6.49
2023-02-03T16:29:19.979Z,6.49
2023-02-03T16:32:10.135Z,6.48
2023-02-03T16:34:56.230Z,6.45
2023-02-03T16:37:43.315Z,6.41
2023-02-03T16:40:30.628Z,6.40
2023-02-03T16:43:17.206Z,6.42
2023-02-03T16:46:07.562Z,6.43
2023-02-03T16:48:54.191Z,6.43
2023-02-03T16:51:23.149Z,6.42
2023-02-03T16:53:52.000Z,6.41
2023-02-03T16:56:23.896Z,6.40
2023-02-03T16:58:52.958Z,6.41
2023-02-03T17:01:21.853Z,6.42
2023-02-03T17:03:51.249Z,6.42
2023-02-03T17:06:20.207Z,6.41
2023-02-03T17:08:49.265Z,6.41
2023-02-03T17:11:19.434Z,6.41
2023-02-03T17:13:48.582Z,6.42
2023-02-03T17:16:18.218Z,6.42
2023-02-03T17:18:47.269Z,6.40
2023-02-03T17:21:16.933Z,6.38
2023-02-03T17:23:45.861Z,6.36
2023-02-03T17:26:14.653Z,6.36
2023-02-03T17:28:43.610Z,6.35
2023-02-03T17:31:14.074Z,6.34
2023-02-03T17:33:43.034Z,6.33
2023-02-03T17:36:13.289Z,6.30
2023-02-03T17:55:21.965Z,6.22
2023-02-03T17:57:50.862Z,6.20
2023-02-03T18:00:20.212Z,6.12
2023-02-03T18:02:51.672Z,5.98
2023-02-03T18:05:20.721Z,5.89
2023-02-03T18:07:49.995Z,5.72
2023-02-03T18:10:19.156Z,5.63
2023-02-03T18:12:48.380Z,5.55
2023-02-03T18:15:17.515Z,5.49
2023-02-03T18:17:46.434Z,5.44
2023-02-03T18:20:15.418Z,5.41
2023-02-03T18:22:46.043Z,5.36
2023-02-03T18:25:17.166Z,5.32
2023-02-03T18:27:46.305Z,5.28
2023-02-03T18:30:18.027Z,5.20
2023-02-03T18:32:47.700Z,5.21
2023-02-03T18:35:18.125Z,5.16
2023-02-03T18:37:47.032Z,5.05
2023-02-03T18:40:16.298Z,5.00
2023-02-03T18:42:45.194Z,4.95
2023-02-03T18:45:14.041Z,4.96
2023-02-03T18:47:45.448Z,4.92
2023-02-03T18:50:14.368Z,4.82
2023-02-03T18:52:43.209Z,4.81
2023-02-03T18:55:12.791Z,4.77
2023-02-03T18:57:41.652Z,4.74
2023-02-03T19:00:11.815Z,4.73
2023-02-03T19:02:41.029Z,4.69
2023-02-03T19:05:12.289Z,4.67
2023-02-03T19:07:41.348Z,4.61
2023-02-03T19:10:10.678Z,4.64
2023-02-03T19:12:39.582Z,4.63
2023-02-03T19:15:10.434Z,4.63
2023-02-03T19:17:39.425Z,4.63
2023-02-03T19:20:10.524Z,4.62
2023-02-03T19:22:39.414Z,4.62
2023-02-03T19:25:08.799Z,4.65
2023-02-03T19:27:37.692Z,4.67
2023-02-03T19:30:07.161Z,4.70
2023-02-03T19:32:36.246Z,4.73
2023-02-03T19:35:07.427Z,4.75
2023-02-03T19:37:37.970Z,4.75
2023-02-03T19:40:09.427Z,4.77
2023-02-03T19:42:39.590Z,4.80
2023-02-03T19:45:11.423Z,4.77
2023-02-03T19:47:43.456Z,4.81
2023-02-03T19:50:14.652Z,4.80
2023-02-03T19:52:44.734Z,4.76
2023-02-03T19:55:15.590Z,4.73
2023-02-03T19:57:46.127Z,4.66
2023-02-03T20:00:17.594Z,4.71
2023-02-03T20:02:47.614Z,4.73
2023-02-03T20:05:19.481Z,4.74
2023-02-03T20:07:50.040Z,4.73
2023-02-03T20:10:20.566Z,4.72
2023-02-03T20:12:50.686Z,4.69
2023-02-03T20:15:21.612Z,4.68
2023-02-03T20:17:52.104Z,4.67
2023-02-03T20:20:22.662Z,4.69
2023-02-03T20:22:52.907Z,4.74
2023-02-03T20:25:23.239Z,4.79
2023-02-03T20:27:55.619Z,4.84
2023-02-03T20:30:26.694Z,4.86
2023-02-03T20:39:51.698Z,4.92
2023-02-03T20:42:20.570Z,4.90
2023-02-03T20:44:49.480Z,4.89
2023-02-03T20:47:19.610Z,4.84
2023-02-03T20:49:49.438Z,4.81
2023-02-03T20:52:19.591Z,4.75
2023-02-03T20:54:48.971Z,4.72
2023-02-03T20:57:18.801Z,4.72
2023-02-03T20:59:47.823Z,4.71
2023-02-03T21:02:30.966Z,4.72
2023-02-03T21:05:00.540Z,4.70
2023-02-03T21:07:30.905Z,4.67
2023-02-03T21:10:00.201Z,4.59
2023-02-03T21:12:29.408Z,4.63
2023-02-03T21:14:58.306Z,4.64
2023-02-03T21:17:27.897Z,4.64
2023-02-03T21:19:57.202Z,4.63
2023-02-03T21:22:26.552Z,4.61
2023-02-03T21:24:56.867Z,4.59
2023-02-03T21:27:27.256Z,4.58
2023-02-03T21:29:57.300Z,4.57
2023-02-03T21:32:27.353Z,4.58
2023-02-03T21:34:56.202Z,4.55
2023-02-03T21:37:41.853Z,4.52
2023-02-03T21:40:19.993Z,4.50
2023-02-03T21:42:49.128Z,4.45
2023-02-03T21:45:30.783Z,4.44
2023-02-03T21:48:00.105Z,4.44
2023-02-03T21:50:30.469Z,4.43
2023-02-03T21:52:59.652Z,4.41
2023-02-03T21:55:28.491Z,4.39
2023-02-03T21:57:57.386Z,4.39
2023-02-03T22:00:43.542Z,4.43
2023-02-03T22:03:19.479Z,4.46
2023-02-03T22:05:48.737Z,4.48
2023-02-03T22:08:19.668Z,4.44
2023-02-03T22:10:48.996Z,4.49
2023-02-03T22:13:17.962Z,4.52
2023-02-03T22:15:48.816Z,4.58
2023-02-03T22:18:17.990Z,4.63
2023-02-03T22:20:46.892Z,4.66
2023-02-03T22:23:15.807Z,4.68
2023-02-03T22:25:44.652Z,4.70
2023-02-03T22:28:13.609Z,4.74
2023-02-03T22:30:42.644Z,4.78
2023-02-03T22:33:11.533Z,4.80
2023-02-03T22:35:40.405Z,4.79
2023-02-03T22:38:09.282Z,4.73
2023-02-03T22:40:38.221Z,4.70
2023-02-03T22:43:07.123Z,4.72
2023-02-03T22:45:36.229Z,4.71
2023-02-03T22:48:05.436Z,4.74
2023-02-03T22:50:36.566Z,4.76
2023-02-03T22:53:06.968Z,4.80
2023-02-03T22:55:35.816Z,4.83
2023-02-03T22:58:04.890Z,4.84
2023-02-03T23:00:33.952Z,4.84
2023-02-03T23:03:04.096Z,4.77
2023-02-03T23:05:33.104Z,4.82
2023-02-03T23:08:02.121Z,4.85
2023-02-03T23:10:31.969Z,4.88
2023-02-03T23:13:01.607Z,4.88
2023-02-03T23:15:30.553Z,4.87
2023-02-03T23:17:59.456Z,4.85
2023-02-03T23:20:28.513Z,4.81
2023-02-03T23:22:57.415Z,4.78
2023-02-03T23:25:26.465Z,4.74
2023-02-03T23:27:55.488Z,4.73
2023-02-03T23:30:24.712Z,4.74
2023-02-03T23:32:53.497Z,4.76
2023-02-03T23:35:40.196Z,4.77
2023-02-03T23:38:09.009Z,4.78
2023-02-03T23:40:38.079Z,4.78
2023-02-03T23:43:07.211Z,4.77
2023-02-03T23:45:36.023Z,4.75
2023-02-03T23:48:05.201Z,4.74
2023-02-03T23:50:34.131Z,4.76
2023-02-03T23:53:03.013Z,4.78
2023-02-03T23:55:31.844Z,4.80
2023-02-03T23:58:00.749Z,4.81
